sensor_id;sensor_type;location;lat;lon;timestamp;temperature;humidity
17851;DHT22;9051;51.548;14.348;2022-07-23T00:00:46;19.60;99.90
17851;DHT22;9051;51.548;14.348;2022-07-23T00:03:18;19.60;99.90
17851;DHT22;9051;51.548;14.348;2022-07-23T00:05:50;19.60;99.90
17851;DHT22;9051;51.548;14.348;2022-07-23T00:08:22;19.80;99.90
17851;DHT22;9051;51.548;14.348;2022-07-23T00:10:53;19.80;99.90
17851;DHT22;9051;51.548;14.348;2022-07-23T00:13:25;19.80;99.90
17851;DHT22;9051;51.548;14.348;2022-07-23T00:15:58;19.80;99.90
17851;DHT22;9051;51.548;14.348;2022-07-23T00:18:31;19.80;99.90
17851;DHT22;9051;51.548;14.348;2022-07-23T00:21:03;19.70;99.90
17851;DHT22;9051;51.548;14.348;2022-07-23T00:23:35;19.80;99.90
17851;DHT22;9051;51.548;14.348;2022-07-23T00:26:07;19.90;99.90
17851;DHT22;9051;51.548;14.348;2022-07-23T00:28:39;20.00;99.90
17851;DHT22;9051;51.548;14.348;2022-07-23T00:31:12;19.90;99.90
17851;DHT22;9051;51.548;14.348;2022-07-23T00:33:44;19.70;99.90
17851;DHT22;9051;51.548;14.348;2022-07-23T00:36:16;19.60;99.90
17851;DHT22;9051;51.548;14.348;2022-07-23T00:38:48;19.50;99.90
17851;DHT22;9051;51.548;14.348;2022-07-23T00:41:19;19.20;99.90
17851;DHT22;9051;51.548;14.348;2022-07-23T00:43:51;19.00;99.90
17851;DHT22;9051;51.548;14.348;2022-07-23T00:46:25;19.00;99.90
17851;DHT22;9051;51.548;14.348;2022-07-23T00:48:57;18.90;99.90
17851;DHT22;9051;51.548;14.348;2022-07-23T00:51:29;18.90;99.90
17851;DHT22;9051;51.548;14.348;2022-07-23T00:54:01;18.80;99.90
17851;DHT22;9051;51.548;14.348;2022-07-23T00:56:33;18.90;99.90
17851;DHT22;9051;51.548;14.348;2022-07-23T00:59:06;18.80;99.90
17851;DHT22;9051;51.548;14.348;2022-07-23T01:01:40;18.80;99.90
17851;DHT22;9051;51.548;14.348;2022-07-23T01:04:12;18.80;99.90
17851;DHT22;9051;51.548;14.348;2022-07-23T01:06:46;18.80;99.90
17851;DHT22;9051;51.548;14.348;2022-07-23T01:09:18;18.80;99.90
17851;DHT22;9051;51.548;14.348;2022-07-23T01:11:50;18.90;99.90
17851;DHT22;9051;51.548;14.348;2022-07-23T01:14:23;18.90;99.90
17851;DHT22;9051;51.548;14.348;2022-07-23T01:16:56;18.90;99.90
17851;DHT22;9051;51.548;14.348;2022-07-23T01:19:28;19.00;99.90
17851;DHT22;9051;51.548;14.348;2022-07-23T01:22:02;19.00;99.90
17851;DHT22;9051;51.548;14.348;2022-07-23T01:24:36;19.00;99.90
17851;DHT22;9051;51.548;14.348;2022-07-23T01:27:10;19.00;99.90
17851;DHT22;9051;51.548;14.348;2022-07-23T01:29:43;19.00;99.90
17851;DHT22;9051;51.548;14.348;2022-07-23T01:32:20;18.90;99.90
17851;DHT22;9051;51.548;14.348;2022-07-23T01:34:53;19.00;99.90
17851;DHT22;9051;51.548;14.348;2022-07-23T01:37:25;18.90;99.90
17851;DHT22;9051;51.548;14.348;2022-07-23T01:39:59;18.90;99.90
17851;DHT22;9051;51.548;14.348;2022-07-23T01:42:31;18.90;99.90
17851;DHT22;9051;51.548;14.348;2022-07-23T01:45:04;18.80;99.90
17851;DHT22;9051;51.548;14.348;2022-07-23T01:47:37;18.80;99.90
17851;DHT22;9051;51.548;14.348;2022-07-23T01:50:09;18.70;99.90
17851;DHT22;9051;51.548;14.348;2022-07-23T01:52:47;18.60;99.90
17851;DHT22;9051;51.548;14.348;2022-07-23T01:55:20;18.60;99.90
17851;DHT22;9051;51.548;14.348;2022-07-23T01:57:54;18.70;99.90
17851;DHT22;9051;51.548;14.348;2022-07-23T02:00:31;18.80;99.90
17851;DHT22;9051;51.548;14.348;2022-07-23T02:03:03;18.90;99.90
17851;DHT22;9051;51.548;14.348;2022-07-23T02:05:36;18.90;99.90
17851;DHT22;9051;51.548;14.348;2022-07-23T02:08:08;19.00;99.90
17851;DHT22;9051;51.548;14.348;2022-07-23T02:10:42;19.10;99.90
17851;DHT22;9051;51.548;14.348;2022-07-23T02:13:14;19.00;99.90
17851;DHT22;9051;51.548;14.348;2022-07-23T02:15:46;19.10;99.90
17851;DHT22;9051;51.548;14.348;2022-07-23T02:18:18;19.10;99.90
17851;DHT22;9051;51.548;14.348;2022-07-23T02:20:50;19.10;99.90
17851;DHT22;9051;51.548;14.348;2022-07-23T02:23:22;19.10;99.90
17851;DHT22;9051;51.548;14.348;2022-07-23T02:25:56;19.20;99.90
17851;DHT22;9051;51.548;14.348;2022-07-23T02:28:28;19.20;99.90
17851;DHT22;9051;51.548;14.348;2022-07-23T02:31:01;19.10;99.90
17851;DHT22;9051;51.548;14.348;2022-07-23T02:33:34;19.10;99.90
17851;DHT22;9051;51.548;14.348;2022-07-23T02:36:06;19.10;99.90
17851;DHT22;9051;51.548;14.348;2022-07-23T02:38:38;19.10;99.90
17851;DHT22;9051;51.548;14.348;2022-07-23T02:41:12;19.10;99.90
17851;DHT22;9051;51.548;14.348;2022-07-23T02:43:45;19.10;99.90
17851;DHT22;9051;51.548;14.348;2022-07-23T02:46:18;19.10;99.90
17851;DHT22;9051;51.548;14.348;2022-07-23T02:48:51;19.10;99.90
17851;DHT22;9051;51.548;14.348;2022-07-23T02:51:24;19.00;99.90
17851;DHT22;9051;51.548;14.348;2022-07-23T02:54:01;19.00;99.90
17851;DHT22;9051;51.548;14.348;2022-07-23T02:56:34;19.10;99.90
17851;DHT22;9051;51.548;14.348;2022-07-23T02:59:06;19.10;99.90
17851;DHT22;9051;51.548;14.348;2022-07-23T03:01:38;19.10;99.90
17851;DHT22;9051;51.548;14.348;2022-07-23T03:04:12;19.20;99.90
17851;DHT22;9051;51.548;14.348;2022-07-23T03:06:46;19.20;99.90
17851;DHT22;9051;51.548;14.348;2022-07-23T03:09:18;19.10;99.90
17851;DHT22;9051;51.548;14.348;2022-07-23T03:11:51;19.10;99.90
17851;DHT22;9051;51.548;14.348;2022-07-23T03:14:24;19.10;99.90
17851;DHT22;9051;51.548;14.348;2022-07-23T03:16:56;19.10;99.90
17851;DHT22;9051;51.548;14.348;2022-07-23T03:19:30;19.20;99.90
17851;DHT22;9051;51.548;14.348;2022-07-23T03:22:02;19.30;99.90
17851;DHT22;9051;51.548;14.348;2022-07-23T03:24:34;19.30;99.90
17851;DHT22;9051;51.548;14.348;2022-07-23T03:27:28;19.30;99.90
17851;DHT22;9051;51.548;14.348;2022-07-23T03:30:00;19.30;99.90
17851;DHT22;9051;51.548;14.348;2022-07-23T03:32:33;19.30;99.90
17851;DHT22;9051;51.548;14.348;2022-07-23T03:35:05;19.30;99.90
17851;DHT22;9051;51.548;14.348;2022-07-23T03:37:39;19.30;99.90
17851;DHT22;9051;51.548;14.348;2022-07-23T03:40:12;19.50;99.90
17851;DHT22;9051;51.548;14.348;2022-07-23T03:42:45;19.50;99.90
17851;DHT22;9051;51.548;14.348;2022-07-23T03:45:17;19.60;99.90
17851;DHT22;9051;51.548;14.348;2022-07-23T03:47:49;19.60;99.90
17851;DHT22;9051;51.548;14.348;2022-07-23T03:50:21;19.50;99.90
17851;DHT22;9051;51.548;14.348;2022-07-23T03:52:53;19.50;99.90
17851;DHT22;9051;51.548;14.348;2022-07-23T03:55:25;19.50;99.90
17851;DHT22;9051;51.548;14.348;2022-07-23T03:57:58;19.50;99.90
17851;DHT22;9051;51.548;14.348;2022-07-23T04:00:30;19.50;99.90
17851;DHT22;9051;51.548;14.348;2022-07-23T04:03:02;19.60;99.90
17851;DHT22;9051;51.548;14.348;2022-07-23T04:05:34;19.60;99.90
17851;DHT22;9051;51.548;14.348;2022-07-23T04:08:11;19.50;99.90
17851;DHT22;9051;51.548;14.348;2022-07-23T04:10:46;19.60;99.90
17851;DHT22;9051;51.548;14.348;2022-07-23T04:13:19;19.70;99.90
17851;DHT22;9051;51.548;14.348;2022-07-23T04:15:52;19.70;99.90
17851;DHT22;9051;51.548;14.348;2022-07-23T04:18:24;19.80;99.90
17851;DHT22;9051;51.548;14.348;2022-07-23T04:21:09;19.80;99.90
17851;DHT22;9051;51.548;14.348;2022-07-23T04:23:42;19.70;99.90
17851;DHT22;9051;51.548;14.348;2022-07-23T04:26:14;19.70;99.90
17851;DHT22;9051;51.548;14.348;2022-07-23T04:28:48;19.70;99.90
17851;DHT22;9051;51.548;14.348;2022-07-23T04:31:20;19.60;99.90
17851;DHT22;9051;51.548;14.348;2022-07-23T04:33:52;19.60;99.90
17851;DHT22;9051;51.548;14.348;2022-07-23T04:36:25;19.60;99.90
17851;DHT22;9051;51.548;14.348;2022-07-23T04:38:57;19.70;99.90
17851;DHT22;9051;51.548;14.348;2022-07-23T04:41:30;19.70;99.90
17851;DHT22;9051;51.548;14.348;2022-07-23T04:44:03;19.90;99.90
17851;DHT22;9051;51.548;14.348;2022-07-23T04:46:36;19.90;99.90
17851;DHT22;9051;51.548;14.348;2022-07-23T04:49:08;19.90;99.90
17851;DHT22;9051;51.548;14.348;2022-07-23T04:51:40;19.80;99.90
17851;DHT22;9051;51.548;14.348;2022-07-23T04:54:12;19.80;99.90
17851;DHT22;9051;51.548;14.348;2022-07-23T04:56:44;19.70;99.90
17851;DHT22;9051;51.548;14.348;2022-07-23T04:59:17;19.60;99.90
17851;DHT22;9051;51.548;14.348;2022-07-23T05:01:51;19.50;99.90
17851;DHT22;9051;51.548;14.348;2022-07-23T05:04:24;19.40;99.90
17851;DHT22;9051;51.548;14.348;2022-07-23T05:06:56;19.30;99.90
17851;DHT22;9051;51.548;14.348;2022-07-23T05:09:28;19.40;99.90
17851;DHT22;9051;51.548;14.348;2022-07-23T05:12:00;19.50;99.90
17851;DHT22;9051;51.548;14.348;2022-07-23T05:14:33;19.50;99.90
17851;DHT22;9051;51.548;14.348;2022-07-23T05:17:05;19.50;99.90
17851;DHT22;9051;51.548;14.348;2022-07-23T05:19:38;19.60;99.90
17851;DHT22;9051;51.548;14.348;2022-07-23T05:22:10;19.60;99.90
17851;DHT22;9051;51.548;14.348;2022-07-23T05:24:42;19.70;99.90
17851;DHT22;9051;51.548;14.348;2022-07-23T05:27:16;19.60;99.90
17851;DHT22;9051;51.548;14.348;2022-07-23T05:29:49;19.50;99.90
17851;DHT22;9051;51.548;14.348;2022-07-23T05:32:21;19.60;99.90
17851;DHT22;9051;51.548;14.348;2022-07-23T05:35:01;19.60;99.90
17851;DHT22;9051;51.548;14.348;2022-07-23T05:37:34;19.70;99.90
17851;DHT22;9051;51.548;14.348;2022-07-23T05:40:07;19.90;99.90
17851;DHT22;9051;51.548;14.348;2022-07-23T05:42:40;19.80;99.90
17851;DHT22;9051;51.548;14.348;2022-07-23T05:45:13;19.80;99.90
17851;DHT22;9051;51.548;14.348;2022-07-23T05:47:49;19.70;99.90
17851;DHT22;9051;51.548;14.348;2022-07-23T05:50:30;19.70;99.90
17851;DHT22;9051;51.548;14.348;2022-07-23T05:53:09;19.60;99.90
17851;DHT22;9051;51.548;14.348;2022-07-23T05:56:02;19.50;99.90
17851;DHT22;9051;51.548;14.348;2022-07-23T05:58:36;19.40;99.90
17851;DHT22;9051;51.548;14.348;2022-07-23T06:01:10;19.40;99.90
17851;DHT22;9051;51.548;14.348;2022-07-23T06:03:49;19.40;99.90
17851;DHT22;9051;51.548;14.348;2022-07-23T06:06:22;19.30;99.90
17851;DHT22;9051;51.548;14.348;2022-07-23T06:08:55;19.30;99.90
17851;DHT22;9051;51.548;14.348;2022-07-23T06:11:27;19.30;99.90
17851;DHT22;9051;51.548;14.348;2022-07-23T06:13:59;19.30;99.90
17851;DHT22;9051;51.548;14.348;2022-07-23T06:16:45;19.40;99.90
17851;DHT22;9051;51.548;14.348;2022-07-23T06:19:17;19.50;99.90
17851;DHT22;9051;51.548;14.348;2022-07-23T06:21:50;19.50;99.90
17851;DHT22;9051;51.548;14.348;2022-07-23T06:24:22;19.40;99.90
17851;DHT22;9051;51.548;14.348;2022-07-23T06:26:55;19.40;99.90
17851;DHT22;9051;51.548;14.348;2022-07-23T06:29:27;19.40;99.90
17851;DHT22;9051;51.548;14.348;2022-07-23T06:32:00;19.40;99.90
17851;DHT22;9051;51.548;14.348;2022-07-23T06:34:32;19.40;99.90
17851;DHT22;9051;51.548;14.348;2022-07-23T06:37:04;19.40;99.90
17851;DHT22;9051;51.548;14.348;2022-07-23T06:39:36;19.50;99.90
17851;DHT22;9051;51.548;14.348;2022-07-23T06:42:08;19.30;99.90
17851;DHT22;9051;51.548;14.348;2022-07-23T06:44:43;19.40;99.90
17851;DHT22;9051;51.548;14.348;2022-07-23T06:47:16;19.40;99.90
17851;DHT22;9051;51.548;14.348;2022-07-23T06:49:48;19.20;99.90
17851;DHT22;9051;51.548;14.348;2022-07-23T06:52:21;19.20;99.90
17851;DHT22;9051;51.548;14.348;2022-07-23T06:54:53;19.10;99.90
17851;DHT22;9051;51.548;14.348;2022-07-23T06:57:25;19.10;99.90
17851;DHT22;9051;51.548;14.348;2022-07-23T06:59:57;19.20;99.90
17851;DHT22;9051;51.548;14.348;2022-07-23T07:02:31;19.20;99.90
17851;DHT22;9051;51.548;14.348;2022-07-23T07:05:03;19.20;99.90
17851;DHT22;9051;51.548;14.348;2022-07-23T07:07:35;19.30;99.90
17851;DHT22;9051;51.548;14.348;2022-07-23T07:10:08;19.10;99.90
17851;DHT22;9051;51.548;14.348;2022-07-23T07:12:40;19.10;99.90
17851;DHT22;9051;51.548;14.348;2022-07-23T07:15:12;19.10;99.90
17851;DHT22;9051;51.548;14.348;2022-07-23T07:17:45;19.10;99.90
17851;DHT22;9051;51.548;14.348;2022-07-23T07:20:18;19.10;99.90
17851;DHT22;9051;51.548;14.348;2022-07-23T07:22:51;19.20;99.90
17851;DHT22;9051;51.548;14.348;2022-07-23T07:25:22;19.30;99.90
17851;DHT22;9051;51.548;14.348;2022-07-23T07:27:54;19.30;99.90
17851;DHT22;9051;51.548;14.348;2022-07-23T07:30:26;19.40;99.90
17851;DHT22;9051;51.548;14.348;2022-07-23T07:32:59;19.60;99.90
17851;DHT22;9051;51.548;14.348;2022-07-23T07:35:31;19.80;99.90
17851;DHT22;9051;51.548;14.348;2022-07-23T07:38:03;20.00;99.90
17851;DHT22;9051;51.548;14.348;2022-07-23T07:40:35;20.30;99.90
17851;DHT22;9051;51.548;14.348;2022-07-23T07:43:07;20.40;99.90
17851;DHT22;9051;51.548;14.348;2022-07-23T07:45:39;20.60;99.90
17851;DHT22;9051;51.548;14.348;2022-07-23T07:48:12;20.90;99.90
17851;DHT22;9051;51.548;14.348;2022-07-23T07:50:44;20.90;99.90
17851;DHT22;9051;51.548;14.348;2022-07-23T07:53:16;21.00;99.90
17851;DHT22;9051;51.548;14.348;2022-07-23T07:55:48;21.10;99.90
17851;DHT22;9051;51.548;14.348;2022-07-23T07:58:20;21.20;99.90
17851;DHT22;9051;51.548;14.348;2022-07-23T08:00:52;21.30;99.90
17851;DHT22;9051;51.548;14.348;2022-07-23T08:03:25;21.50;99.90
17851;DHT22;9051;51.548;14.348;2022-07-23T08:05:57;21.70;99.90
17851;DHT22;9051;51.548;14.348;2022-07-23T08:08:29;21.90;99.90
17851;DHT22;9051;51.548;14.348;2022-07-23T08:11:01;22.10;99.90
17851;DHT22;9051;51.548;14.348;2022-07-23T08:13:32;22.10;99.90
17851;DHT22;9051;51.548;14.348;2022-07-23T08:16:05;22.20;99.90
17851;DHT22;9051;51.548;14.348;2022-07-23T08:18:38;22.30;99.90
17851;DHT22;9051;51.548;14.348;2022-07-23T08:21:10;22.30;99.90
17851;DHT22;9051;51.548;14.348;2022-07-23T08:23:42;22.50;99.90
17851;DHT22;9051;51.548;14.348;2022-07-23T08:26:14;22.70;99.90
17851;DHT22;9051;51.548;14.348;2022-07-23T08:28:45;22.90;99.90
17851;DHT22;9051;51.548;14.348;2022-07-23T08:31:17;23.10;99.90
17851;DHT22;9051;51.548;14.348;2022-07-23T08:33:50;23.10;99.90
17851;DHT22;9051;51.548;14.348;2022-07-23T08:36:23;23.10;99.90
17851;DHT22;9051;51.548;14.348;2022-07-23T08:38:58;23.20;99.90
17851;DHT22;9051;51.548;14.348;2022-07-23T08:41:29;23.30;99.90
17851;DHT22;9051;51.548;14.348;2022-07-23T08:44:02;23.30;99.90
17851;DHT22;9051;51.548;14.348;2022-07-23T08:46:34;23.50;99.90
17851;DHT22;9051;51.548;14.348;2022-07-23T08:49:08;23.60;99.90
17851;DHT22;9051;51.548;14.348;2022-07-23T08:51:40;23.50;99.90
17851;DHT22;9051;51.548;14.348;2022-07-23T08:54:13;23.70;99.90
17851;DHT22;9051;51.548;14.348;2022-07-23T08:56:45;23.90;99.90
17851;DHT22;9051;51.548;14.348;2022-07-23T08:59:17;24.00;99.90
17851;DHT22;9051;51.548;14.348;2022-07-23T09:01:48;24.00;99.90
17851;DHT22;9051;51.548;14.348;2022-07-23T09:04:22;24.00;99.90
17851;DHT22;9051;51.548;14.348;2022-07-23T09:06:54;24.00;99.90
17851;DHT22;9051;51.548;14.348;2022-07-23T09:09:26;23.90;99.90
17851;DHT22;9051;51.548;14.348;2022-07-23T09:12:05;23.70;99.90
17851;DHT22;9051;51.548;14.348;2022-07-23T09:14:38;23.60;99.90
17851;DHT22;9051;51.548;14.348;2022-07-23T09:17:13;23.60;99.90
17851;DHT22;9051;51.548;14.348;2022-07-23T09:19:46;23.50;99.90
17851;DHT22;9051;51.548;14.348;2022-07-23T09:22:20;23.60;99.90
17851;DHT22;9051;51.548;14.348;2022-07-23T09:25:07;23.80;99.90
17851;DHT22;9051;51.548;14.348;2022-07-23T09:27:53;23.80;99.90
17851;DHT22;9051;51.548;14.348;2022-07-23T09:30:28;23.90;99.90
17851;DHT22;9051;51.548;14.348;2022-07-23T09:33:08;23.90;99.90
17851;DHT22;9051;51.548;14.348;2022-07-23T09:35:52;23.90;99.90
17851;DHT22;9051;51.548;14.348;2022-07-23T09:38:25;23.80;99.90
17851;DHT22;9051;51.548;14.348;2022-07-23T09:41:06;23.90;99.90
17851;DHT22;9051;51.548;14.348;2022-07-23T09:43:38;23.90;99.90
17851;DHT22;9051;51.548;14.348;2022-07-23T09:46:18;24.00;99.90
17851;DHT22;9051;51.548;14.348;2022-07-23T09:48:51;23.90;99.90
17851;DHT22;9051;51.548;14.348;2022-07-23T09:51:25;23.90;99.90
17851;DHT22;9051;51.548;14.348;2022-07-23T09:54:00;24.00;99.90
17851;DHT22;9051;51.548;14.348;2022-07-23T09:56:34;24.20;99.90
17851;DHT22;9051;51.548;14.348;2022-07-23T09:59:06;24.20;99.90
17851;DHT22;9051;51.548;14.348;2022-07-23T10:01:39;24.10;99.90
17851;DHT22;9051;51.548;14.348;2022-07-23T10:04:12;24.10;99.90
17851;DHT22;9051;51.548;14.348;2022-07-23T10:07:06;24.10;99.90
17851;DHT22;9051;51.548;14.348;2022-07-23T10:09:58;24.10;99.90
17851;DHT22;9051;51.548;14.348;2022-07-23T10:12:49;24.00;99.90
17851;DHT22;9051;51.548;14.348;2022-07-23T10:15:42;23.90;99.90
17851;DHT22;9051;51.548;14.348;2022-07-23T10:18:14;23.90;99.90
17851;DHT22;9051;51.548;14.348;2022-07-23T10:20:47;24.00;99.90
17851;DHT22;9051;51.548;14.348;2022-07-23T10:23:28;24.00;99.90
17851;DHT22;9051;51.548;14.348;2022-07-23T10:26:08;24.10;99.90
17851;DHT22;9051;51.548;14.348;2022-07-23T10:29:02;24.40;99.90
17851;DHT22;9051;51.548;14.348;2022-07-23T10:31:46;24.60;99.90
17851;DHT22;9051;51.548;14.348;2022-07-23T10:34:21;24.80;99.90
17851;DHT22;9051;51.548;14.348;2022-07-23T10:36:59;24.80;99.90
17851;DHT22;9051;51.548;14.348;2022-07-23T10:39:36;24.90;99.90
17851;DHT22;9051;51.548;14.348;2022-07-23T10:42:09;24.90;99.90
17851;DHT22;9051;51.548;14.348;2022-07-23T10:44:43;25.10;99.90
17851;DHT22;9051;51.548;14.348;2022-07-23T10:47:42;24.90;99.90
17851;DHT22;9051;51.548;14.348;2022-07-23T10:50:36;24.70;99.90
17851;DHT22;9051;51.548;14.348;2022-07-23T10:53:11;24.50;99.90
17851;DHT22;9051;51.548;14.348;2022-07-23T11:00:21;24.20;99.90
17851;DHT22;9051;51.548;14.348;2022-07-23T11:02:54;24.20;99.90
17851;DHT22;9051;51.548;14.348;2022-07-23T11:05:40;24.30;99.90
17851;DHT22;9051;51.548;14.348;2022-07-23T11:08:18;24.40;99.90
17851;DHT22;9051;51.548;14.348;2022-07-23T11:10:53;24.20;99.90
17851;DHT22;9051;51.548;14.348;2022-07-23T11:13:37;24.30;99.90
17851;DHT22;9051;51.548;14.348;2022-07-23T11:16:25;24.20;99.90
17851;DHT22;9051;51.548;14.348;2022-07-23T11:19:06;24.10;99.90
17851;DHT22;9051;51.548;14.348;2022-07-23T11:22:09;23.90;99.90
17851;DHT22;9051;51.548;14.348;2022-07-23T11:24:50;23.60;99.90
17851;DHT22;9051;51.548;14.348;2022-07-23T11:27:37;23.50;99.90
17851;DHT22;9051;51.548;14.348;2022-07-23T11:30:10;23.40;99.90
17851;DHT22;9051;51.548;14.348;2022-07-23T11:33:16;23.30;99.90
17851;DHT22;9051;51.548;14.348;2022-07-23T11:36:01;23.30;99.90
17851;DHT22;9051;51.548;14.348;2022-07-23T11:38:35;23.20;99.90
17851;DHT22;9051;51.548;14.348;2022-07-23T11:41:09;23.40;99.90
17851;DHT22;9051;51.548;14.348;2022-07-23T11:43:41;23.40;99.90
17851;DHT22;9051;51.548;14.348;2022-07-23T11:46:13;23.30;99.90
17851;DHT22;9051;51.548;14.348;2022-07-23T11:49:01;23.20;99.90
17851;DHT22;9051;51.548;14.348;2022-07-23T11:51:33;23.20;99.90
17851;DHT22;9051;51.548;14.348;2022-07-23T11:54:05;23.10;99.90
17851;DHT22;9051;51.548;14.348;2022-07-23T11:56:37;23.00;99.90
17851;DHT22;9051;51.548;14.348;2022-07-23T11:59:09;23.00;99.90
17851;DHT22;9051;51.548;14.348;2022-07-23T12:01:56;23.00;99.90
17851;DHT22;9051;51.548;14.348;2022-07-23T12:04:38;22.70;99.90
17851;DHT22;9051;51.548;14.348;2022-07-23T12:07:24;22.60;99.90
17851;DHT22;9051;51.548;14.348;2022-07-23T12:09:57;22.50;99.90
17851;DHT22;9051;51.548;14.348;2022-07-23T12:12:35;22.40;99.90
17851;DHT22;9051;51.548;14.348;2022-07-23T12:15:09;22.20;99.90
17851;DHT22;9051;51.548;14.348;2022-07-23T12:17:43;22.20;99.90
17851;DHT22;9051;51.548;14.348;2022-07-23T12:20:18;22.30;99.90
17851;DHT22;9051;51.548;14.348;2022-07-23T12:22:52;22.30;99.90
17851;DHT22;9051;51.548;14.348;2022-07-23T12:25:26;22.30;99.90
17851;DHT22;9051;51.548;14.348;2022-07-23T12:28:00;22.30;99.90
17851;DHT22;9051;51.548;14.348;2022-07-23T12:30:35;22.40;99.90
17851;DHT22;9051;51.548;14.348;2022-07-23T12:33:10;22.50;99.90
17851;DHT22;9051;51.548;14.348;2022-07-23T12:35:45;22.50;99.90
17851;DHT22;9051;51.548;14.348;2022-07-23T12:38:19;22.50;99.90
17851;DHT22;9051;51.548;14.348;2022-07-23T12:40:52;22.50;99.90
17851;DHT22;9051;51.548;14.348;2022-07-23T12:43:26;22.50;99.90
17851;DHT22;9051;51.548;14.348;2022-07-23T12:46:04;22.50;99.90
17851;DHT22;9051;51.548;14.348;2022-07-23T12:48:38;22.30;99.90
17851;DHT22;9051;51.548;14.348;2022-07-23T12:51:15;22.20;99.90
17851;DHT22;9051;51.548;14.348;2022-07-23T12:53:48;22.10;99.90
17851;DHT22;9051;51.548;14.348;2022-07-23T12:56:26;22.00;99.90
17851;DHT22;9051;51.548;14.348;2022-07-23T12:59:02;22.10;99.90
17851;DHT22;9051;51.548;14.348;2022-07-23T13:01:37;22.10;99.90
17851;DHT22;9051;51.548;14.348;2022-07-23T13:04:11;22.00;99.90
17851;DHT22;9051;51.548;14.348;2022-07-23T13:06:46;21.90;99.90
17851;DHT22;9051;51.548;14.348;2022-07-23T13:09:20;21.90;99.90
17851;DHT22;9051;51.548;14.348;2022-07-23T13:11:54;21.90;99.90
17851;DHT22;9051;51.548;14.348;2022-07-23T13:14:27;21.90;99.90
17851;DHT22;9051;51.548;14.348;2022-07-23T13:16:59;22.10;99.90
17851;DHT22;9051;51.548;14.348;2022-07-23T13:19:31;22.30;99.90
17851;DHT22;9051;51.548;14.348;2022-07-23T13:22:04;22.30;99.90
17851;DHT22;9051;51.548;14.348;2022-07-23T13:24:36;22.40;99.90
17851;DHT22;9051;51.548;14.348;2022-07-23T13:27:08;22.50;99.90
17851;DHT22;9051;51.548;14.348;2022-07-23T13:29:40;22.70;99.90
17851;DHT22;9051;51.548;14.348;2022-07-23T13:32:12;22.80;99.90
17851;DHT22;9051;51.548;14.348;2022-07-23T13:34:44;22.70;99.90
17851;DHT22;9051;51.548;14.348;2022-07-23T13:37:17;22.70;99.90
17851;DHT22;9051;51.548;14.348;2022-07-23T13:39:49;22.80;99.90
17851;DHT22;9051;51.548;14.348;2022-07-23T13:42:21;22.80;99.90
17851;DHT22;9051;51.548;14.348;2022-07-23T13:44:53;22.80;99.90
17851;DHT22;9051;51.548;14.348;2022-07-23T13:47:25;22.90;99.90
17851;DHT22;9051;51.548;14.348;2022-07-23T13:49:57;23.00;99.90
17851;DHT22;9051;51.548;14.348;2022-07-23T13:52:30;23.00;99.90
17851;DHT22;9051;51.548;14.348;2022-07-23T13:55:05;23.10;99.90
17851;DHT22;9051;51.548;14.348;2022-07-23T13:57:38;23.30;99.90
17851;DHT22;9051;51.548;14.348;2022-07-23T14:00:10;23.50;99.90
17851;DHT22;9051;51.548;14.348;2022-07-23T14:02:43;23.60;99.90
17851;DHT22;9051;51.548;14.348;2022-07-23T14:05:15;23.50;99.90
17851;DHT22;9051;51.548;14.348;2022-07-23T14:07:48;23.20;99.90
17851;DHT22;9051;51.548;14.348;2022-07-23T14:10:22;23.10;99.90
17851;DHT22;9051;51.548;14.348;2022-07-23T14:12:54;23.10;99.90
17851;DHT22;9051;51.548;14.348;2022-07-23T14:15:30;23.20;99.90
17851;DHT22;9051;51.548;14.348;2022-07-23T14:18:02;23.10;99.90
17851;DHT22;9051;51.548;14.348;2022-07-23T14:20:34;23.10;99.90
17851;DHT22;9051;51.548;14.348;2022-07-23T14:23:08;23.10;99.90
17851;DHT22;9051;51.548;14.348;2022-07-23T14:25:39;23.40;99.90
17851;DHT22;9051;51.548;14.348;2022-07-23T14:28:11;23.70;99.90
17851;DHT22;9051;51.548;14.348;2022-07-23T14:30:43;23.80;99.90
17851;DHT22;9051;51.548;14.348;2022-07-23T14:33:15;24.10;99.90
17851;DHT22;9051;51.548;14.348;2022-07-23T14:35:47;24.10;99.90
17851;DHT22;9051;51.548;14.348;2022-07-23T14:38:20;24.00;99.90
17851;DHT22;9051;51.548;14.348;2022-07-23T14:40:52;24.00;99.90
17851;DHT22;9051;51.548;14.348;2022-07-23T14:43:24;23.90;99.90
17851;DHT22;9051;51.548;14.348;2022-07-23T14:45:56;23.80;99.90
17851;DHT22;9051;51.548;14.348;2022-07-23T14:48:28;23.80;99.90
17851;DHT22;9051;51.548;14.348;2022-07-23T14:51:00;23.90;99.90
17851;DHT22;9051;51.548;14.348;2022-07-23T14:53:33;23.90;99.90
17851;DHT22;9051;51.548;14.348;2022-07-23T14:56:05;23.90;99.90
17851;DHT22;9051;51.548;14.348;2022-07-23T14:58:37;23.80;99.90
17851;DHT22;9051;51.548;14.348;2022-07-23T15:01:09;23.70;99.90
17851;DHT22;9051;51.548;14.348;2022-07-23T15:03:41;23.60;99.90
17851;DHT22;9051;51.548;14.348;2022-07-23T15:06:12;23.60;99.90
17851;DHT22;9051;51.548;14.348;2022-07-23T15:08:46;23.90;99.90
17851;DHT22;9051;51.548;14.348;2022-07-23T15:11:18;24.00;99.90
17851;DHT22;9051;51.548;14.348;2022-07-23T15:13:50;24.00;99.90
17851;DHT22;9051;51.548;14.348;2022-07-23T15:16:22;23.90;99.90
17851;DHT22;9051;51.548;14.348;2022-07-23T15:18:54;23.80;99.90
17851;DHT22;9051;51.548;14.348;2022-07-23T15:21:26;23.70;99.90
17851;DHT22;9051;51.548;14.348;2022-07-23T15:24:01;23.60;99.90
17851;DHT22;9051;51.548;14.348;2022-07-23T15:26:32;23.70;99.90
17851;DHT22;9051;51.548;14.348;2022-07-23T15:29:04;23.60;99.90
17851;DHT22;9051;51.548;14.348;2022-07-23T15:31:37;23.60;99.90
17851;DHT22;9051;51.548;14.348;2022-07-23T15:34:09;23.70;99.90
17851;DHT22;9051;51.548;14.348;2022-07-23T15:36:41;23.60;99.90
17851;DHT22;9051;51.548;14.348;2022-07-23T15:39:14;23.50;99.90
17851;DHT22;9051;51.548;14.348;2022-07-23T15:41:46;23.60;99.90
17851;DHT22;9051;51.548;14.348;2022-07-23T15:44:18;23.70;99.90
17851;DHT22;9051;51.548;14.348;2022-07-23T15:46:50;23.90;99.90
17851;DHT22;9051;51.548;14.348;2022-07-23T15:49:23;24.20;99.90
17851;DHT22;9051;51.548;14.348;2022-07-23T15:51:55;24.40;99.90
17851;DHT22;9051;51.548;14.348;2022-07-23T15:54:28;24.50;99.90
17851;DHT22;9051;51.548;14.348;2022-07-23T15:57:00;24.50;99.90
17851;DHT22;9051;51.548;14.348;2022-07-23T15:59:32;24.30;99.90
17851;DHT22;9051;51.548;14.348;2022-07-23T16:02:04;24.30;99.90
17851;DHT22;9051;51.548;14.348;2022-07-23T16:04:36;24.30;99.90
17851;DHT22;9051;51.548;14.348;2022-07-23T16:07:08;24.40;99.90
17851;DHT22;9051;51.548;14.348;2022-07-23T16:09:41;24.50;99.90
17851;DHT22;9051;51.548;14.348;2022-07-23T16:12:13;24.60;99.90
17851;DHT22;9051;51.548;14.348;2022-07-23T16:14:45;24.60;99.90
17851;DHT22;9051;51.548;14.348;2022-07-23T16:17:17;24.50;99.90